Time;durP1;ratioP1;P1;durP2;ratioP2;P2;SDS_P1;SDS_P2;PMS_P1;PMS_P2;Temp;Humidity;BMP_temperature;BMP_pressure;BME280_temperature;BME280_humidity;BME280_pressure;Samples;Min_cycle;Max_cycle;Signal;HPM_P1;HPM_P2
2023/03/19 00:00:10;;;;;;;;;2.00;2.00;;;;;14.14;100.00;100716.25;5053340;28;45289;-80
2023/03/19 00:02:40;;;;;;;;;1.67;1.67;;;;;14.12;100.00;100718.41;5052748;28;45748;-78
2023/03/19 00:05:05;;;;;;;;;0.67;0.67;;;;;14.16;100.00;100722.38;5044301;28;45505;-79
2023/03/19 00:07:42;;;;;;;;;2.67;1.00;;;;;14.17;100.00;100725.97;5054632;28;45943;-79
2023/03/19 00:10:08;;;;;;;;;3.00;1.00;;;;;14.10;100.00;100713.13;5043645;28;46233;-80
2023/03/19 00:12:34;;;;;;;;;2.00;2.00;;;;;14.15;100.00;100736.38;5029084;28;47371;-79
2023/03/19 00:15:00;;;;;;;;;2.00;1.00;;;;;13.98;100.00;100711.38;5051623;28;45720;-79
2023/03/19 00:17:25;;;;;;;;;1.67;1.67;;;;;14.03;100.00;100722.56;5048453;28;45450;-78
2023/03/19 00:19:51;;;;;;;;;3.67;2.00;;;;;14.05;100.00;100726.75;5046704;28;45841;-81
2023/03/19 00:22:16;;;;;;;;;1.00;1.00;;;;;14.04;100.00;100730.59;5043966;28;46142;-79
2023/03/19 00:24:42;;;;;;;;;1.33;1.33;;;;;14.08;100.00;100748.34;5035434;28;45489;-79
2023/03/19 00:27:07;;;;;;;;;1.33;1.33;;;;;13.80;100.00;100702.03;5046593;28;45696;-79
2023/03/19 00:29:34;;;;;;;;;1.33;1.00;;;;;13.99;100.00;100738.72;5046079;28;45908;-78
2023/03/19 00:32:00;;;;;;;;;1.00;1.00;;;;;13.81;100.00;100713.94;5048444;28;45563;-79
2023/03/19 00:34:25;;;;;;;;;1.00;1.00;;;;;13.75;100.00;100701.91;5036505;28;45566;-78
2023/03/19 00:36:51;;;;;;;;;1.00;1.00;;;;;13.78;100.00;100723.50;5032526;28;46250;-77
2023/03/19 00:39:16;;;;;;;;;1.00;0.67;;;;;13.87;100.00;100752.44;5049671;28;45720;-76
2023/03/19 00:41:49;;;;;;;;;2.00;0.67;;;;;13.85;100.00;100757.34;5041896;28;46676;-77
2023/03/19 00:44:14;;;;;;;;;1.00;1.00;;;;;13.84;100.00;100752.91;5043508;28;45807;-77
2023/03/19 00:46:40;;;;;;;;;1.67;1.67;;;;;13.80;100.00;100757.19;5050525;28;45778;-81
2023/03/19 00:49:05;;;;;;;;;4.00;3.00;;;;;13.77;100.00;100763.16;5052534;28;45924;-77
2023/03/19 00:51:30;;;;;;;;;2.67;1.67;;;;;13.76;100.00;100755.97;5050807;28;46291;-76
2023/03/19 00:53:56;;;;;;;;;1.67;0.67;;;;;13.73;100.00;100750.94;5053131;28;45669;-77
2023/03/19 00:56:21;;;;;;;;;2.00;2.00;;;;;13.70;100.00;100754.16;5053962;28;45527;-76
2023/03/19 00:58:47;;;;;;;;;2.00;2.00;;;;;13.65;100.00;100757.56;5054417;28;45876;-77
2023/03/19 01:01:15;;;;;;;;;2.67;2.67;;;;;13.63;100.00;100745.94;5045204;28;47170;-77
2023/03/19 01:03:41;;;;;;;;;2.33;2.33;;;;;13.67;100.00;100758.19;5035481;28;45413;-77
2023/03/19 01:06:06;;;;;;;;;2.33;2.33;;;;;13.66;100.00;100766.69;5052085;28;45989;-75
2023/03/19 01:08:32;;;;;;;;;3.67;2.67;;;;;13.64;100.00;100763.31;5048370;28;45566;-77
2023/03/19 01:11:17;;;;;;;;;1.67;1.67;;;;;13.60;100.00;100769.28;5048383;28;46786;-76
2023/03/19 01:13:42;;;;;;;;;2.00;2.00;;;;;13.57;100.00;100771.66;5049716;28;45581;-76
2023/03/19 01:16:09;;;;;;;;;3.33;3.33;;;;;13.58;100.00;100778.84;5049487;28;45581;-75
2023/03/19 01:18:35;;;;;;;;;3.00;3.00;;;;;13.55;100.00;100771.88;5048215;28;45808;-75
2023/03/19 01:21:00;;;;;;;;;3.00;3.00;;;;;13.62;100.00;100770.97;5052224;28;47309;-76
2023/03/19 01:23:26;;;;;;;;;3.67;3.33;;;;;13.59;100.00;100773.13;5047727;28;45731;-75
2023/03/19 01:25:51;;;;;;;;;2.00;2.00;;;;;13.58;100.00;100759.56;5036268;28;45749;-75
2023/03/19 01:28:17;;;;;;;;;2.67;2.67;;;;;13.59;100.00;100770.38;5048786;28;45792;-75
2023/03/19 01:30:43;;;;;;;;;2.00;2.00;;;;;13.60;100.00;100769.28;5037749;28;47151;-77
2023/03/19 01:33:08;;;;;;;;;3.67;2.00;;;;;13.63;100.00;100772.66;5037060;28;45356;-76
2023/03/19 01:35:34;;;;;;;;;3.33;3.33;;;;;13.63;100.00;100778.16;5043126;28;45966;-76
2023/03/19 01:37:59;;;;;;;;;2.00;2.00;;;;;13.59;100.00;100766.75;5048229;28;45569;-74
2023/03/19 01:40:25;;;;;;;;;3.00;2.00;;;;;13.51;100.00;100754.13;5042581;28;46531;-76
2023/03/19 01:42:52;;;;;;;;;3.33;2.00;;;;;13.61;100.00;100778.41;5050282;28;45436;-75
2023/03/19 01:45:36;;;;;;;;;5.00;2.67;;;;;13.56;100.00;100768.06;5049054;28;45533;-75
2023/03/19 01:48:02;;;;;;;;;3.67;3.33;;;;;13.57;100.00;100775.25;5044019;28;45582;-74
2023/03/19 01:50:41;;;;;;;;;5.33;3.00;;;;;13.56;100.00;100770.81;5043051;28;45480;-75
2023/03/19 01:53:08;;;;;;;;;5.33;3.67;;;;;13.57;100.00;100768.91;5027424;28;45696;-75
2023/03/19 01:55:33;;;;;;;;;4.67;3.33;;;;;13.51;100.00;100767.06;5027594;28;45488;-75
2023/03/19 01:58:00;;;;;;;;;2.67;2.67;;;;;13.44;100.00;100764.34;5049786;28;45828;-75
2023/03/19 02:00:27;;;;;;;;;4.67;3.67;;;;;13.48;100.00;100765.59;5048153;28;46282;-76
2023/03/19 02:02:59;;;;;;;;;3.33;3.00;;;;;13.46;100.00;100762.22;5044853;28;45758;-78
2023/03/19 02:05:25;;;;;;;;;3.00;1.67;;;;;13.31;100.00;100737.78;5030608;28;45800;-76
2023/03/19 02:07:55;;;;;;;;;4.67;4.00;;;;;13.40;100.00;100754.88;5027151;28;45430;-74
2023/03/19 02:10:21;;;;;;;;;5.33;5.33;;;;;13.42;100.00;100759.06;5030336;28;46015;-77
2023/03/19 02:12:48;;;;;;;;;2.33;2.33;;;;;13.34;100.00;100747.53;5024981;28;45699;-77
2023/03/19 02:15:14;;;;;;;;;3.33;3.33;;;;;13.31;100.00;100746.03;5022672;28;45896;-76
2023/03/19 02:17:41;;;;;;;;;3.00;3.00;;;;;13.32;100.00;100750.44;5029048;28;45512;-75
2023/03/19 02:20:11;;;;;;;;;4.00;3.00;;;;;13.35;100.00;100751.94;5021807;28;47458;-76
2023/03/19 02:22:42;;;;;;;;;5.33;5.33;;;;;13.33;100.00;100745.81;5025488;28;45567;-76
2023/03/19 02:25:20;;;;;;;;;3.00;3.00;;;;;13.34;100.00;100756.63;5046671;28;45653;-76
2023/03/19 02:27:46;;;;;;;;;3.67;3.67;;;;;13.36;100.00;100756.41;5042616;28;45966;-76
2023/03/19 02:30:21;;;;;;;;;5.67;4.67;;;;;13.34;100.00;100758.56;5020876;28;46146;-74
2023/03/19 02:32:47;;;;;;;;;4.00;3.67;;;;;13.33;100.00;100752.16;5034438;28;45463;-77
2023/03/19 02:35:12;;;;;;;;;3.00;3.00;;;;;13.24;100.00;100745.25;5031003;28;45859;-75
2023/03/19 02:37:38;;;;;;;;;6.67;4.33;;;;;13.27;100.00;100743.97;5026787;28;45841;-75
2023/03/19 02:40:09;;;;;;;;;1.67;1.67;;;;;13.41;100.00;100759.31;5033588;28;46529;-76
2023/03/19 02:42:35;;;;;;;;;6.67;5.33;;;;;13.39;100.00;100762.28;5031294;28;45761;-76
2023/03/19 02:45:00;;;;;;;;;5.67;5.67;;;;;13.40;100.00;100752.13;5019793;28;45782;-75
2023/03/19 02:47:26;;;;;;;;;3.00;3.00;;;;;13.45;100.00;100766.03;5036005;28;46872;-76
2023/03/19 02:49:52;;;;;;;;;4.00;3.67;;;;;13.45;100.00;100760.53;5023196;28;46869;-77
2023/03/19 02:52:18;;;;;;;;;3.67;3.67;;;;;13.46;100.00;100773.25;5025874;28;45648;-76
2023/03/19 02:54:45;;;;;;;;;5.67;2.67;;;;;13.44;100.00;100758.84;5028562;28;45768;-75
2023/03/19 02:57:10;;;;;;;;;3.00;3.00;;;;;13.45;100.00;100766.03;5036028;28;45726;-75
2023/03/19 02:59:36;;;;;;;;;5.33;4.67;;;;;13.41;100.00;100764.81;5030804;28;46410;-75
2023/03/19 03:02:01;;;;;;;;;2.33;2.33;;;;;13.42;100.00;100777.53;5027155;28;45802;-75
2023/03/19 03:04:28;;;;;;;;;4.00;4.00;;;;;13.36;100.00;100768.25;5038101;28;45793;-75
2023/03/19 03:06:53;;;;;;;;;7.00;4.33;;;;;13.30;100.00;100757.28;5027286;28;46218;-75
2023/03/19 03:09:18;;;;;;;;;3.00;3.00;;;;;13.35;100.00;100772.09;5021893;28;48382;-75
2023/03/19 03:11:44;;;;;;;;;4.33;3.67;;;;;13.34;100.00;100775.06;5040692;28;45452;-76
2023/03/19 03:14:10;;;;;;;;;3.67;3.67;;;;;13.36;100.00;100779.28;5049226;28;45398;-74
2023/03/19 03:16:36;;;;;;;;;2.67;2.67;;;;;13.25;100.00;100753.28;5050111;28;45942;-75
2023/03/19 03:19:03;;;;;;;;;3.00;3.00;;;;;13.32;100.00;100772.50;5046015;28;46006;-75
2023/03/19 03:21:28;;;;;;;;;4.67;4.67;;;;;13.30;100.00;100773.81;5048447;28;45411;-74
2023/03/19 03:23:53;;;;;;;;;6.67;2.67;;;;;13.20;100.00;100763.28;5050248;28;45422;-76
2023/03/19 03:26:19;;;;;;;;;2.67;2.67;;;;;13.30;100.00;100774.63;5049342;28;46181;-76
2023/03/19 03:28:45;;;;;;;;;6.67;5.67;;;;;13.31;100.00;100770.81;5057072;28;46136;-76
2023/03/19 03:31:10;;;;;;;;;3.33;3.33;;;;;13.31;100.00;100769.97;5049792;28;45763;-74
2023/03/19 03:33:36;;;;;;;;;3.33;3.33;;;;;13.30;100.00;100776.56;5032163;28;45536;-76
2023/03/19 03:36:02;;;;;;;;;3.00;3.00;;;;;13.28;100.00;100778.69;5063920;28;45507;-74
2023/03/19 03:38:27;;;;;;;;;5.33;5.00;;;;;13.28;100.00;100779.53;5017081;28;46234;-75
2023/03/19 03:40:53;;;;;;;;;3.67;3.67;;;;;13.29;100.00;100783.97;5050336;28;45805;-76
2023/03/19 03:43:20;;;;;;;;;5.33;5.00;;;;;13.27;100.00;100780.59;5053370;28;45862;-75
2023/03/19 03:45:47;;;;;;;;;5.33;5.00;;;;;13.21;100.00;100774.06;5038601;28;45350;-75
2023/03/19 03:48:13;;;;;;;;;7.67;4.33;;;;;13.23;100.00;100785.72;5024160;28;48538;-75
2023/03/19 03:50:39;;;;;;;;;4.33;2.67;;;;;13.11;100.00;100764.66;5044808;28;45911;-76
2023/03/19 03:53:04;;;;;;;;;4.00;4.00;;;;;13.19;100.00;100773.47;5050545;28;45593;-76
2023/03/19 03:55:30;;;;;;;;;6.67;4.00;;;;;13.13;100.00;100763.38;5062865;28;45503;-75
2023/03/19 03:57:56;;;;;;;;;8.67;7.33;;;;;13.28;100.00;100789.69;5049405;28;46127;-74
2023/03/19 04:00:22;;;;;;;;;7.00;5.33;;;;;13.31;100.00;100789.25;5037816;28;46593;-77
2023/03/19 04:02:48;;;;;;;;;7.67;5.33;;;;;13.31;100.00;100798.38;5047163;28;45494;-75
2023/03/19 04:05:15;;;;;;;;;6.00;3.33;;;;;13.30;100.00;100790.34;5037967;28;45926;-76
2023/03/19 04:07:41;;;;;;;;;5.33;3.67;;;;;13.29;100.00;100794.97;5046978;28;45670;-75
2023/03/19 04:10:08;;;;;;;;;6.33;6.33;;;;;13.32;100.00;100794.53;5054926;28;45471;-76
2023/03/19 04:12:34;;;;;;;;;5.67;4.67;;;;;13.25;100.00;100794.59;5038921;28;45788;-76
2023/03/19 04:14:59;;;;;;;;;8.33;6.67;;;;;13.26;100.00;100789.91;5049216;28;45722;-75
2023/03/19 04:17:25;;;;;;;;;5.33;5.33;;;;;13.33;100.00;100803.66;5038462;28;47279;-74
2023/03/19 04:19:50;;;;;;;;;8.33;7.00;;;;;13.32;100.00;100793.69;5016196;28;45455;-74
2023/03/19 04:22:16;;;;;;;;;6.00;3.00;;;;;13.23;100.00;100774.72;5041532;28;45389;-74
2023/03/19 04:24:41;;;;;;;;;7.33;7.33;;;;;13.34;100.00;100797.13;5051950;28;45399;-75
2023/03/19 04:27:07;;;;;;;;;3.00;3.00;;;;;13.30;100.00;100788.41;5054392;28;46742;-76
2023/03/19 04:29:32;;;;;;;;;5.00;5.00;;;;;13.28;100.00;100796.06;5022202;28;45397;-75
2023/03/19 04:31:58;;;;;;;;;4.00;4.00;;;;;13.23;100.00;100796.75;5053647;28;45937;-74
2023/03/19 04:34:24;;;;;;;;;7.33;6.33;;;;;13.24;100.00;100803.09;5054882;28;45790;-82
2023/03/19 04:36:50;;;;;;;;;7.33;6.67;;;;;13.27;100.00;100808.13;5068107;28;46620;-82
2023/03/19 04:39:16;;;;;;;;;3.67;3.67;;;;;13.25;100.00;100810.28;5076730;28;45485;-84
2023/03/19 04:41:42;;;;;;;;;6.00;4.67;;;;;13.20;100.00;100802.72;5066525;28;45372;-83
2023/03/19 04:44:08;;;;;;;;;6.67;3.67;;;;;13.20;100.00;100808.22;5077077;28;45749;-81
2023/03/19 04:46:34;;;;;;;;;4.00;4.00;;;;;13.16;100.00;100803.34;5073054;28;46153;-82
2023/03/19 04:49:00;;;;;;;;;6.67;6.00;;;;;13.19;100.00;100803.75;5041303;28;45886;-82
2023/03/19 04:51:26;;;;;;;;;4.33;4.33;;;;;13.20;100.00;100802.72;5068026;28;45364;-82
2023/03/19 04:53:51;;;;;;;;;5.67;3.67;;;;;13.16;100.00;100795.94;5072295;28;45355;-82
2023/03/19 04:56:17;;;;;;;;;4.67;4.67;;;;;13.15;100.00;100807.19;5062718;28;46249;-83
2023/03/19 04:58:44;;;;;;;;;7.67;7.67;;;;;13.12;100.00;100800.22;5072740;28;45532;-83
2023/03/19 05:01:09;;;;;;;;;8.67;7.67;;;;;13.10;100.00;100813.38;5070989;28;45203;-84
2023/03/19 05:03:35;;;;;;;;;9.33;7.67;;;;;13.01;100.00;100801.78;5061203;28;45362;-83
2023/03/19 05:06:00;;;;;;;;;4.33;4.33;;;;;13.06;100.00;100810.22;5070920;28;45401;-83
2023/03/19 05:08:26;;;;;;;;;10.00;6.67;;;;;13.08;100.00;100812.75;5068392;28;45507;-82
2023/03/19 05:10:52;;;;;;;;;6.33;6.33;;;;;13.06;100.00;100817.63;5052040;28;45539;-83
2023/03/19 05:13:17;;;;;;;;;9.33;6.67;;;;;12.98;100.00;100815.16;5042374;28;45441;-80
2023/03/19 05:15:44;;;;;;;;;7.67;6.33;;;;;13.03;100.00;100824.44;5060234;28;46452;-81
2023/03/19 05:18:10;;;;;;;;;7.00;7.00;;;;;13.03;100.00;100831.84;5069199;28;45388;-80
2023/03/19 05:20:36;;;;;;;;;7.33;6.33;;;;;12.99;100.00;100831.44;5070586;28;44763;-84
2023/03/19 05:23:04;;;;;;;;;8.33;7.33;;;;;12.99;100.00;100827.84;5044610;28;44853;-86
2023/03/19 05:25:30;;;;;;;;;11.00;8.33;;;;;13.05;100.00;100843.47;5056831;28;45090;-85
2023/03/19 05:27:55;;;;;;;;;7.00;7.00;;;;;13.01;100.00;100832.06;5042776;28;44856;-86
2023/03/19 05:30:22;;;;;;;;;8.33;7.00;;;;;12.89;100.00;100820.94;5067933;27;44738;-85
2023/03/19 05:32:49;;;;;;;;;10.00;8.00;;;;;13.00;100.00;100844.16;5066637;28;44836;-84
2023/03/19 05:35:16;;;;;;;;;9.00;8.33;;;;;13.01;100.00;100850.50;5083545;27;45284;-87
2023/03/19 05:37:42;;;;;;;;;6.67;6.67;;;;;12.77;100.00;100817.22;5061948;28;44642;-85
2023/03/19 05:40:09;;;;;;;;;10.33;10.33;;;;;12.95;100.00;100855.00;5081591;27;45082;-84
2023/03/19 05:42:40;;;;;;;;;10.00;7.33;;;;;12.88;100.00;100845.94;5078496;28;44779;-84
2023/03/19 05:45:05;;;;;;;;;12.00;9.33;;;;;12.95;100.00;100859.63;5058307;28;44946;-86
2023/03/19 05:47:31;;;;;;;;;10.67;10.67;;;;;12.88;100.00;100860.53;5054934;28;45353;-84
2023/03/19 05:49:57;;;;;;;;;8.67;8.67;;;;;12.89;100.00;100867.72;5079359;28;45325;-87
2023/03/19 05:52:22;;;;;;;;;12.00;11.67;;;;;12.88;100.00;100876.22;5060486;28;44855;-85
2023/03/19 05:54:49;;;;;;;;;14.33;11.33;;;;;12.86;100.00;100870.09;5060870;28;47424;-86
2023/03/19 05:57:16;;;;;;;;;11.67;10.00;;;;;12.83;100.00;100867.75;5073759;28;44879;-87
2023/03/19 05:59:42;;;;;;;;;9.33;7.33;;;;;12.85;100.00;100871.97;5065271;28;45438;-82
2023/03/19 06:02:07;;;;;;;;;14.00;10.00;;;;;12.85;100.00;100871.16;5036074;28;47382;-80
2023/03/19 06:04:33;;;;;;;;;7.67;7.33;;;;;12.84;100.00;100869.44;5057421;28;46433;-80
2023/03/19 06:06:58;;;;;;;;;9.67;9.00;;;;;12.82;100.00;100866.09;5065156;28;45806;-82
2023/03/19 06:09:24;;;;;;;;;11.33;9.33;;;;;12.89;100.00;100877.91;5029533;28;45677;-81
2023/03/19 06:11:50;;;;;;;;;10.33;9.00;;;;;12.83;100.00;100878.75;5057797;28;45855;-80
2023/03/19 06:14:15;;;;;;;;;9.00;9.00;;;;;12.80;100.00;100879.22;5054697;28;48009;-81
2023/03/19 06:16:41;;;;;;;;;11.67;9.00;;;;;12.83;100.00;100884.28;5055776;28;45651;-80
2023/03/19 06:19:06;;;;;;;;;11.00;10.33;;;;;12.87;100.00;100888.28;5054674;28;45493;-81
2023/03/19 06:21:32;;;;;;;;;9.33;8.33;;;;;12.85;100.00;100896.75;5051900;28;45437;-80
2023/03/19 06:23:58;;;;;;;;;11.67;10.33;;;;;12.89;100.00;100899.94;5050764;28;46488;-82
2023/03/19 06:26:23;;;;;;;;;12.00;11.67;;;;;12.88;100.00;100910.06;5057007;28;45545;-82
2023/03/19 06:28:49;;;;;;;;;10.67;9.67;;;;;12.87;100.00;100913.03;5037364;28;45842;-84
2023/03/19 06:31:15;;;;;;;;;12.00;10.00;;;;;12.89;100.00;100917.28;5052410;28;45901;-82
2023/03/19 06:33:41;;;;;;;;;12.00;11.00;;;;;12.92;100.00;100920.63;5061942;28;46031;-83
2023/03/19 06:36:07;;;;;;;;;9.00;8.67;;;;;12.91;100.00;100914.31;5065629;28;44913;-84
2023/03/19 06:38:34;;;;;;;;;10.67;8.33;;;;;12.84;100.00;100892.34;5062743;28;45464;-81
2023/03/19 06:41:01;;;;;;;;;12.33;11.00;;;;;12.91;100.00;100913.47;5063634;28;45739;-84
2023/03/19 06:43:27;;;;;;;;;10.33;10.00;;;;;12.82;100.00;100904.63;5046468;28;46038;-82
2023/03/19 06:45:52;;;;;;;;;9.00;8.67;;;;;12.85;100.00;100906.94;5063400;28;45526;-81
2023/03/19 06:48:18;;;;;;;;;13.00;10.33;;;;;12.93;100.00;100917.66;5054196;28;45744;-83
2023/03/19 06:50:46;;;;;;;;;10.67;9.33;;;;;12.95;100.00;100918.31;5047874;28;45964;-82
2023/03/19 06:53:13;;;;;;;;;11.67;8.67;;;;;12.95;100.00;100911.94;5052326;28;45560;-82
2023/03/19 06:55:39;;;;;;;;;11.67;9.67;;;;;13.02;100.00;100918.25;5033690;28;45524;-82
2023/03/19 06:58:05;;;;;;;;;10.33;10.33;;;;;13.06;100.00;100914.00;5031891;28;45799;-81
2023/03/19 07:00:33;;;;;;;;;11.67;10.33;;;;;13.16;100.00;100924.53;5039081;28;45814;-82
2023/03/19 07:02:58;;;;;;;;;9.67;9.67;;;;;13.20;100.00;100921.13;5053093;28;45824;-84
2023/03/19 07:05:24;;;;;;;;;13.00;11.67;;;;;13.24;100.00;100908.56;5049320;28;45533;-83
2023/03/19 07:07:51;;;;;;;;;9.00;9.00;;;;;13.41;100.00;100916.31;5039065;28;45564;-82
2023/03/19 07:10:18;;;;;;;;;11.67;11.67;;;;;13.52;100.00;100907.34;5057447;28;45957;-83
2023/03/19 07:12:44;;;;;;;;;13.33;9.00;;;;;13.76;100.00;100910.34;5055282;28;45779;-82
2023/03/19 07:15:09;;;;;;;;;7.33;7.33;;;;;13.89;100.00;100920.38;5054715;28;45607;-84
2023/03/19 07:17:35;;;;;;;;;9.67;9.67;;;;;14.01;100.00;100931.50;5055877;28;46061;-83
2023/03/19 07:20:01;;;;;;;;;13.00;11.67;;;;;14.11;100.00;100935.41;5054944;28;45395;-87
2023/03/19 07:22:26;;;;;;;;;9.67;9.67;;;;;14.17;100.00;100927.31;5055078;28;46350;-85
2023/03/19 07:24:52;;;;;;;;;9.33;8.33;;;;;14.07;100.00;100911.28;5054549;28;45860;-83
2023/03/19 07:27:17;;;;;;;;;15.67;14.33;;;;;14.18;100.00;100935.38;5058003;28;45364;-84
2023/03/19 07:29:43;;;;;;;;;19.00;16.67;;;;;14.18;100.00;100935.38;5044289;28;45556;-85
2023/03/19 07:32:10;;;;;;;;;10.00;9.00;;;;;14.07;100.00;100930.59;5045172;28;45971;-84
2023/03/19 07:34:36;;;;;;;;;19.33;17.00;;;;;13.89;100.00;100898.31;5057045;28;45506;-84
2023/03/19 07:37:01;;;;;;;;;13.00;12.00;;;;;14.00;100.00;100927.91;5049663;28;45936;-85
2023/03/19 07:39:27;;;;;;;;;11.00;11.00;;;;;14.12;100.00;100931.59;5053847;28;45442;-83
2023/03/19 07:41:53;;;;;;;;;9.67;8.67;;;;;14.09;100.00;100931.22;5050709;28;45965;-86
2023/03/19 07:44:19;;;;;;;;;14.00;14.00;;;;;14.04;100.00;100917.25;5057874;28;45455;-85
2023/03/19 07:46:45;;;;;;;;;14.33;10.33;;;;;14.25;100.00;100932.53;5054542;28;45620;-86
2023/03/19 07:49:11;;;;;;;;;9.00;8.00;;;;;14.20;100.00;100935.97;5056307;28;45521;-84
2023/03/19 07:51:36;;;;;;;;;9.00;9.00;;;;;14.20;100.00;100938.72;5044623;28;47546;-84
2023/03/19 07:54:02;;;;;;;;;8.67;8.00;;;;;14.19;100.00;100939.81;5066378;28;45460;-86
2023/03/19 07:56:28;;;;;;;;;10.33;6.67;;;;;14.21;100.00;100939.59;5060234;28;46112;-85
2023/03/19 07:58:53;;;;;;;;;6.67;6.33;;;;;14.01;100.00;100913.06;5049554;28;46384;-84
2023/03/19 08:01:19;;;;;;;;;9.67;6.33;;;;;14.08;100.00;100927.59;5044663;28;47192;-82
2023/03/19 08:03:47;;;;;;;;;7.67;7.67;;;;;14.10;100.00;100927.38;5060685;28;45482;-83
2023/03/19 08:06:12;;;;;;;;;7.33;7.33;;;;;14.27;100.00;100939.50;5062221;28;45563;-83
2023/03/19 08:08:43;;;;;;;;;8.00;7.00;;;;;14.43;100.00;100948.25;5066173;28;46026;-88
2023/03/19 08:11:09;;;;;;;;;9.33;5.33;;;;;14.43;100.00;100917.88;5044223;28;45630;-85
2023/03/19 08:13:42;;;;;;;;;7.00;5.33;;;;;14.85;100.00;100937.38;5061647;28;45492;-89
2023/03/19 08:16:09;;;;;;;;;7.67;5.67;;;;;15.11;100.00;100921.50;5051278;28;45928;-86
2023/03/19 08:18:35;;;;;;;;;7.00;7.00;;;;;15.51;100.00;100954.06;5064240;28;45685;-84
2023/03/19 08:21:01;;;;;;;;;3.33;3.33;;;;;15.50;100.00;100917.28;5042814;28;47621;-84
2023/03/19 08:23:27;;;;;;;;;6.00;6.00;;;;;15.69;100.00;100942.91;5045429;28;45431;-83
2023/03/19 08:25:55;;;;;;;;;15.33;10.00;;;;;15.97;100.00;100952.50;5044855;28;44902;-84
2023/03/19 08:28:21;;;;;;;;;3.67;3.67;;;;;16.17;100.00;100954.88;5066535;28;45588;-83
2023/03/19 08:30:51;;;;;;;;;8.00;7.00;;;;;16.18;100.00;100964.00;5049993;28;45578;-84
2023/03/19 08:33:19;;;;;;;;;12.33;10.00;;;;;15.90;100.00;100949.00;5062896;28;45115;-87
2023/03/19 08:35:47;;;;;;;;;17.33;14.67;;;;;16.11;100.00;100974.34;5072895;28;44726;-87
2023/03/19 08:38:12;;;;;;;;;8.00;8.00;;;;;15.81;100.00;100936.59;5073733;28;45368;-85
2023/03/19 08:40:39;;;;;;;;;20.67;16.33;;;;;15.99;100.00;100979.91;5046737;28;47584;-85
2023/03/19 08:43:06;;;;;;;;;10.33;9.00;;;;;15.79;100.00;100975.53;5052174;28;44882;-84
2023/03/19 08:45:31;;;;;;;;;13.00;12.67;;;;;16.04;100.00;101011.28;5083949;22;45787;-72
2023/03/19 08:47:57;;;;;;;;;8.67;8.67;;;;;16.14;100.00;101016.25;5079715;27;45536;-72
2023/03/19 08:50:23;;;;;;;;;14.67;12.00;;;;;16.23;100.00;101020.31;5087380;27;46988;-70
2023/03/19 08:52:48;;;;;;;;;9.67;8.33;;;;;16.46;100.00;101024.19;5088965;27;45778;-76
2023/03/19 08:55:15;;;;;;;;;11.33;10.00;;;;;16.40;100.00;101011.31;5089369;27;45524;-73
2023/03/19 08:57:40;;;;;;;;;10.33;8.33;;;;;16.55;100.00;101032.97;5091965;27;45453;-74
2023/03/19 09:00:07;;;;;;;;;11.00;9.00;;;;;16.37;100.00;101023.69;5101844;27;48174;-73
2023/03/19 09:02:32;;;;;;;;;7.67;7.33;;;;;16.10;100.00;101028.03;5077969;27;45688;-74
2023/03/19 09:04:58;;;;;;;;;8.33;7.67;;;;;16.04;100.00;101038.94;5097601;27;46046;-72
2023/03/19 09:07:23;;;;;;;;;5.33;4.33;;;;;15.97;100.00;101034.63;5081915;27;46017;-73
2023/03/19 09:09:49;;;;;;;;;8.67;8.00;;;;;15.83;100.00;101039.53;5091981;27;45484;-72
2023/03/19 09:12:16;;;;;;;;;6.00;6.00;;;;;15.67;100.00;101041.88;5095736;27;45719;-71
2023/03/19 09:14:42;;;;;;;;;6.33;6.33;;;;;15.57;100.00;101043.47;5106732;27;45573;-72
2023/03/19 09:17:08;;;;;;;;;8.00;8.00;;;;;15.38;100.00;101046.31;5088427;27;46031;-71
2023/03/19 09:19:34;;;;;;;;;35.00;28.67;;;;;15.29;100.00;101048.53;5087960;27;46979;-73
2023/03/19 09:22:00;;;;;;;;;9.67;8.33;;;;;15.21;100.00;101051.66;5078983;27;45449;-71
2023/03/19 09:24:25;;;;;;;;;27.00;19.67;;;;;15.25;100.00;101050.06;5085394;27;45882;-75
2023/03/19 09:26:51;;;;;;;;;19.67;15.00;;;;;15.35;100.00;101050.38;5098824;27;45718;-72
2023/03/19 09:29:17;;;;;;;;;11.00;8.33;;;;;15.42;100.00;101046.66;5082863;27;47148;-74
2023/03/19 09:31:43;;;;;;;;;7.00;5.33;;;;;15.32;100.00;101042.56;5089750;27;45438;-73
2023/03/19 09:34:09;;;;;;;;;15.33;10.33;;;;;15.25;100.00;101047.31;5096820;27;45600;-74
2023/03/19 09:36:35;;;;;;;;;15.33;11.67;;;;;15.14;100.00;101048.13;5086638;27;45688;-71
2023/03/19 09:39:01;;;;;;;;;9.67;6.67;;;;;15.09;100.00;101048.81;5080991;27;46927;-71
2023/03/19 09:41:58;;;;;;;;;9.33;7.33;;;;;15.03;100.00;101057.16;5081344;27;45776;-77
2023/03/19 09:44:30;;;;;;;;;11.00;6.67;;;;;15.02;100.00;101052.75;5080583;27;45999;-68
2023/03/19 09:47:25;;;;;;;;;7.33;6.33;;;;;15.00;100.00;101059.31;5080855;27;45849;-68
2023/03/19 09:49:57;;;;;;;;;6.00;6.00;;;;;14.96;100.00;101058.09;5077707;27;46122;-73
2023/03/19 09:52:41;;;;;;;;;9.67;7.33;;;;;15.03;100.00;101065.44;5089327;27;45944;-71
2023/03/19 09:55:12;;;;;;;;;7.33;5.00;;;;;15.09;100.00;101072.81;5085597;27;45481;-73
2023/03/19 09:57:38;;;;;;;;;4.33;3.00;;;;;15.00;100.00;101067.63;5084873;27;45855;-72
2023/03/19 10:00:39;;;;;;;;;6.67;5.67;;;;;14.92;100.00;101067.91;5104093;27;45855;-73
2023/03/19 10:03:36;;;;;;;;;5.00;5.00;;;;;14.89;100.00;101084.94;5081553;27;45549;-72
2023/03/19 10:06:21;;;;;;;;;6.67;5.33;;;;;14.87;100.00;101087.09;5101106;27;45474;-69
2023/03/19 10:09:15;;;;;;;;;5.00;5.00;;;;;14.73;100.00;101085.53;5090051;27;45738;-70
2023/03/19 10:12:06;;;;;;;;;8.67;5.33;;;;;14.69;100.00;101087.91;5087943;27;45416;-69
2023/03/19 10:14:50;;;;;;;;;10.00;5.33;;;;;14.65;100.00;101089.44;5097549;27;45397;-69
2023/03/19 10:17:41;;;;;;;;;9.33;6.33;;;;;14.70;100.00;101086.00;5084442;27;45816;-69
2023/03/19 10:20:18;;;;;;;;;12.00;7.33;;;;;14.86;100.00;101090.91;5085814;27;46669;-71
2023/03/19 10:22:49;;;;;;;;;8.67;7.67;;;;;14.97;100.00;101087.41;5080599;27;46319;-68
2023/03/19 10:25:25;;;;;;;;;13.33;9.00;;;;;15.10;100.00;101093.84;5064272;27;45891;-72
2023/03/19 10:27:57;;;;;;;;;7.67;7.67;;;;;15.20;100.00;101096.91;5080630;27;45782;-71
2023/03/19 10:30:24;;;;;;;;;7.33;6.67;;;;;15.26;100.00;101090.47;5081147;27;45557;-71
2023/03/19 10:33:22;;;;;;;;;7.33;7.33;;;;;15.39;100.00;101091.34;5076908;27;45503;-73
2023/03/19 10:36:04;;;;;;;;;9.00;9.00;;;;;15.76;100.00;101094.88;5074678;27;45752;-70
2023/03/19 10:38:32;;;;;;;;;7.67;4.00;;;;;16.02;100.00;101093.69;5086363;27;46002;-70
2023/03/19 10:41:30;;;;;;;;;12.67;8.67;;;;;16.21;100.00;101097.22;5083628;27;46045;-72
2023/03/19 10:44:00;;;;;;;;;45.67;38.33;;;;;16.05;100.00;101084.91;5076856;27;45362;-72
2023/03/19 10:46:26;;;;;;;;;40.00;32.33;;;;;15.98;100.00;101111.00;5079453;27;45664;-72
2023/03/19 10:48:51;;;;;;;;;19.33;16.00;;;;;15.71;100.00;101126.00;5084189;27;46402;-70
2023/03/19 10:51:25;;;;;;;;;12.67;12.67;;;;;15.38;100.00;101139.44;5083550;27;45853;-71
2023/03/19 10:53:54;;;;;;;;;11.00;11.00;;;;;15.14;100.00;101133.75;5083059;27;45913;-73
2023/03/19 10:56:24;;;;;;;;;3.00;3.00;;;;;14.90;100.00;101130.81;5088095;27;45984;-71
2023/03/19 10:58:57;;;;;;;;;3.67;2.67;;;;;14.84;100.00;101134.50;5079300;27;45810;-70
2023/03/19 11:01:27;;;;;;;;;4.67;3.00;;;;;14.76;100.00;101140.28;5084297;27;45747;-71
2023/03/19 11:04:00;;;;;;;;;11.00;8.67;;;;;14.76;100.00;101135.63;5079866;27;46318;-70
2023/03/19 11:06:26;;;;;;;;;9.67;8.00;;;;;14.81;100.00;101134.97;5084197;27;45938;-71
2023/03/19 11:08:55;;;;;;;;;71.25;55.50;;;;;14.76;100.00;101138.41;5084783;27;45572;-70
2023/03/19 11:11:41;;;;;;;;;5.00;4.00;;;;;14.59;100.00;101143.59;5085166;27;46683;-70
2023/03/19 11:14:24;;;;;;;;;17.67;16.33;;;;;14.68;100.00;101135.91;5081826;27;46556;-70
2023/03/19 11:16:53;;;;;;;;;4.00;4.00;;;;;14.64;100.00;101146.56;5079877;27;45899;-71